createdAt,value
2022-08-02T00:00:09.588Z,1.90
2022-08-02T00:02:36.739Z,2.10
2022-08-02T00:05:06.542Z,2.20
2022-08-02T00:07:40.695Z,1.90
2022-08-02T00:10:09.905Z,2.20
2022-08-02T00:12:39.342Z,1.95
2022-08-02T00:15:07.860Z,2.10
2022-08-02T00:17:34.728Z,1.95
2022-08-02T00:20:04.358Z,2.33
2022-08-02T00:22:34.407Z,2.17
2022-08-02T00:25:01.188Z,2.40
2022-08-02T00:27:30.798Z,2.40
2022-08-02T00:32:29.047Z,2.60
2022-08-02T00:34:55.782Z,2.17
2022-08-02T00:37:22.509Z,2.30
2022-08-02T00:39:49.233Z,2.22
2022-08-02T00:42:18.356Z,2.30
2022-08-02T00:44:45.153Z,2.28
2022-08-02T00:47:19.324Z,2.45
2022-08-02T00:49:47.127Z,2.10
2022-08-02T00:52:14.216Z,2.17
2022-08-02T00:54:43.670Z,2.55
2022-08-02T00:57:10.435Z,2.15
2022-08-02T00:59:39.760Z,2.50
2022-08-02T01:02:12.193Z,2.10
2022-08-02T01:04:39.205Z,2.00
2022-08-02T01:07:12.521Z,2.50
2022-08-02T01:09:46.701Z,2.58
2022-08-02T01:12:14.312Z,2.55
2022-08-02T01:14:44.454Z,2.33
2022-08-02T01:17:34.315Z,2.50
2022-08-02T01:20:25.294Z,2.42
2022-08-02T01:23:29.503Z,2.78
2022-08-02T01:26:10.623Z,2.60
2022-08-02T01:28:52.029Z,2.90
2022-08-02T01:31:21.898Z,2.42
2022-08-02T01:34:06.098Z,2.80
2022-08-02T01:36:41.499Z,2.47
2022-08-02T01:39:12.219Z,2.45
2022-08-02T01:42:07.882Z,2.60
2022-08-02T01:44:38.115Z,2.63
2022-08-02T01:47:19.342Z,2.50
2022-08-02T01:49:50.697Z,2.63
2022-08-02T01:52:22.557Z,2.65
2022-08-02T01:54:58.182Z,2.53
2022-08-02T01:57:27.463Z,2.45
2022-08-02T01:59:57.906Z,2.17
2022-08-02T02:02:28.875Z,3.10
2022-08-02T02:04:59.712Z,2.88
2022-08-02T02:07:29.661Z,2.72
2022-08-02T02:09:58.385Z,2.70
2022-08-02T02:12:25.741Z,2.30
2022-08-02T02:14:54.488Z,2.60
2022-08-02T02:18:11.267Z,2.28
2022-08-02T02:20:21.716Z,2.47
2022-08-02T02:22:49.867Z,2.75
2022-08-02T02:25:19.724Z,2.78
2022-08-02T02:28:01.062Z,2.38
2022-08-02T02:30:29.915Z,2.53
2022-08-02T02:33:04.982Z,2.50
2022-08-02T02:35:36.978Z,2.40
2022-08-02T02:38:08.016Z,2.40
2022-08-02T02:40:36.630Z,2.20
2022-08-02T02:43:04.961Z,2.40
2022-08-02T02:45:36.695Z,2.65
2022-08-02T02:48:07.348Z,2.65
2022-08-02T02:50:36.122Z,2.17
2022-08-02T02:53:06.914Z,2.75
2022-08-02T02:55:38.611Z,2.30
2022-08-02T02:58:06.476Z,2.50
2022-08-02T03:00:51.655Z,2.80
2022-08-02T03:03:23.863Z,2.58
2022-08-02T03:05:51.487Z,2.78
2022-08-02T03:08:20.553Z,2.50
2022-08-02T03:10:48.259Z,2.65
2022-08-02T03:13:16.048Z,2.58
2022-08-02T03:15:43.342Z,3.00
2022-08-02T03:18:10.060Z,2.35
2022-08-02T03:20:36.906Z,2.92
2022-08-02T03:23:04.735Z,2.72
2022-08-02T03:25:31.590Z,2.58
2022-08-02T03:28:01.705Z,2.95
2022-08-02T03:30:30.626Z,2.40
2022-08-02T03:32:57.709Z,2.70
2022-08-02T03:35:26.544Z,2.50
2022-08-02T03:37:59.974Z,2.60
2022-08-02T03:40:27.924Z,2.28
2022-08-02T03:42:55.494Z,2.40
2022-08-02T03:45:23.163Z,2.58
2022-08-02T03:47:52.523Z,2.70
2022-08-02T03:50:22.822Z,2.50
2022-08-02T03:52:50.166Z,2.15
2022-08-02T03:55:16.928Z,2.60
2022-08-02T03:57:44.222Z,2.58
2022-08-02T04:00:19.165Z,2.70
2022-08-02T04:02:45.968Z,2.50
2022-08-02T04:05:13.074Z,2.90
2022-08-02T04:08:34.046Z,3.10
2022-08-02T04:10:26.910Z,3.05
2022-08-02T04:12:56.838Z,2.85
2022-08-02T04:15:26.194Z,2.78
2022-08-02T04:17:59.843Z,2.88
2022-08-02T04:20:33.959Z,2.97
2022-08-02T04:23:07.076Z,3.00
2022-08-02T04:25:40.301Z,2.70
2022-08-02T04:28:17.454Z,3.10
2022-08-02T04:30:49.851Z,2.50
2022-08-02T04:33:19.367Z,2.70
2022-08-02T04:35:46.424Z,2.90
2022-08-02T04:38:16.966Z,3.33
2022-08-02T04:40:55.574Z,2.90
2022-08-02T04:43:23.283Z,3.45
2022-08-02T04:45:55.029Z,3.20
2022-08-02T04:48:22.533Z,3.20
2022-08-02T04:50:52.187Z,3.08
2022-08-02T04:53:19.157Z,3.28
2022-08-02T04:55:48.595Z,2.92
2022-08-02T04:58:38.715Z,3.17
2022-08-02T05:01:02.150Z,2.78
2022-08-02T05:03:31.072Z,3.05
2022-08-02T05:05:58.388Z,3.03
2022-08-02T05:08:25.091Z,2.83
2022-08-02T05:10:54.264Z,2.95
2022-08-02T05:13:21.146Z,3.47
2022-08-02T05:15:50.808Z,3.58
2022-08-02T05:20:44.531Z,3.90
2022-08-02T05:23:11.351Z,3.97
2022-08-02T05:25:38.150Z,4.50
2022-08-02T05:28:08.322Z,3.72
2022-08-02T05:30:38.132Z,3.88
2022-08-02T05:33:05.482Z,3.70
2022-08-02T05:35:35.104Z,3.97
2022-08-02T05:38:01.914Z,4.15
2022-08-02T05:40:28.791Z,3.90
2022-08-02T05:42:55.942Z,4.03
2022-08-02T05:45:23.854Z,3.88
2022-08-02T05:47:53.186Z,3.55
2022-08-02T05:50:24.359Z,3.72
2022-08-02T05:52:59.244Z,3.00
2022-08-02T05:55:40.317Z,3.75
2022-08-02T05:58:46.369Z,3.75
2022-08-02T06:01:17.690Z,3.10
2022-08-02T06:03:52.300Z,3.20
2022-08-02T06:06:25.495Z,3.50
2022-08-02T06:08:58.917Z,3.63
2022-08-02T06:11:42.993Z,3.60
2022-08-02T06:14:31.604Z,3.33
2022-08-02T06:16:59.253Z,4.00
2022-08-02T06:19:26.899Z,3.65
2022-08-02T06:22:34.653Z,3.70
2022-08-02T06:24:51.357Z,3.13
2022-08-02T06:27:19.003Z,3.50
2022-08-02T06:29:51.414Z,3.13
2022-08-02T06:32:19.411Z,3.05
2022-08-02T06:34:46.752Z,2.85
2022-08-02T06:37:41.141Z,2.88
2022-08-02T06:40:16.835Z,2.78
2022-08-02T06:42:46.382Z,2.88
2022-08-02T06:47:42.432Z,2.83
2022-08-02T06:50:10.648Z,2.42
2022-08-02T06:52:37.551Z,2.65
2022-08-02T06:55:10.239Z,2.88
2022-08-02T06:57:37.139Z,3.50
2022-08-02T07:00:09.029Z,2.80
2022-08-02T07:02:39.815Z,2.90
2022-08-02T07:05:07.796Z,2.60
2022-08-02T07:07:37.231Z,2.78
2022-08-02T07:10:06.602Z,2.90
2022-08-02T07:12:34.645Z,2.38
2022-08-02T07:15:05.331Z,2.83
2022-08-02T07:17:32.644Z,2.35
2022-08-02T07:20:02.497Z,2.70
2022-08-02T07:22:31.505Z,2.45
2022-08-02T07:24:59.906Z,2.78
2022-08-02T07:27:29.426Z,2.55
2022-08-02T07:32:28.178Z,2.53
2022-08-02T07:34:55.975Z,2.40
2022-08-02T07:37:53.630Z,2.92
2022-08-02T07:40:20.230Z,2.15
2022-08-02T07:42:49.870Z,2.30
2022-08-02T07:45:21.692Z,2.35
2022-08-02T07:47:51.539Z,2.47
2022-08-02T07:50:20.234Z,2.47
2022-08-02T07:52:47.873Z,2.47
2022-08-02T07:55:18.208Z,2.30
2022-08-02T07:57:48.629Z,2.80
2022-08-02T08:00:17.419Z,2.22
2022-08-02T08:02:44.908Z,2.33
2022-08-02T08:05:12.045Z,2.13
2022-08-02T08:07:41.439Z,2.60
2022-08-02T08:10:08.947Z,2.78
2022-08-02T08:12:37.882Z,2.55
2022-08-02T08:15:05.263Z,2.53
2022-08-02T08:17:32.054Z,2.90
2022-08-02T08:19:58.777Z,2.67
2022-08-02T08:22:25.569Z,2.70
2022-08-02T08:24:52.339Z,2.22
2022-08-02T08:27:22.425Z,2.45
2022-08-02T08:29:51.476Z,2.22
2022-08-02T08:32:19.526Z,1.88
2022-08-02T08:34:48.027Z,2.23
2022-08-02T08:37:17.650Z,2.42
2022-08-02T08:39:58.073Z,2.28
2022-08-02T08:42:30.464Z,2.00
2022-08-02T08:44:58.864Z,1.98
2022-08-02T08:47:45.642Z,2.33
2022-08-02T08:50:24.858Z,2.00
2022-08-02T08:53:03.774Z,1.80
2022-08-02T08:55:31.624Z,2.20
2022-08-02T08:57:59.813Z,2.03
2022-08-02T09:00:29.482Z,1.80
2022-08-02T09:02:56.832Z,2.30
2022-08-02T09:05:28.244Z,2.15
2022-08-02T09:07:57.432Z,2.00
2022-08-02T09:10:42.540Z,2.10
2022-08-02T09:13:43.544Z,2.10
2022-08-02T09:16:12.976Z,1.95
2022-08-02T09:18:47.797Z,1.77
2022-08-02T09:21:16.848Z,2.00
2022-08-02T09:23:46.492Z,1.77
2022-08-02T09:28:52.820Z,2.20
2022-08-02T09:31:24.546Z,1.63
2022-08-02T09:33:58.177Z,2.13
2022-08-02T09:36:26.612Z,1.90
2022-08-02T09:39:01.453Z,2.10
2022-08-02T09:41:30.081Z,2.10
2022-08-02T09:44:04.456Z,1.77
2022-08-02T09:46:43.810Z,1.77
2022-08-02T09:49:16.745Z,3.03
2022-08-02T09:51:47.078Z,1.95
2022-08-02T09:54:33.008Z,1.58
2022-08-02T09:57:02.069Z,2.00
2022-08-02T09:59:30.068Z,1.55
2022-08-02T10:02:04.316Z,1.50
2022-08-02T10:04:52.676Z,2.03
2022-08-02T10:09:49.388Z,1.65
2022-08-02T10:12:16.906Z,1.70
2022-08-02T10:14:44.922Z,1.77
2022-08-02T10:17:12.032Z,1.80
2022-08-02T10:20:01.921Z,1.55
2022-08-02T10:22:30.961Z,1.55
2022-08-02T10:25:00.910Z,1.42
2022-08-02T10:27:55.194Z,1.50
2022-08-02T10:30:23.039Z,1.58
2022-08-02T10:35:25.573Z,1.52
2022-08-02T10:38:00.974Z,1.80
2022-08-02T10:40:44.483Z,1.75
2022-08-02T10:43:11.833Z,2.15
2022-08-02T10:45:39.503Z,1.65
2022-08-02T10:48:14.696Z,1.80
2022-08-02T10:50:48.192Z,1.55
2022-08-02T10:53:21.615Z,2.03
2022-08-02T10:55:48.783Z,1.98
2022-08-02T10:58:26.318Z,1.85
2022-08-02T11:00:57.732Z,1.75
2022-08-02T11:03:28.223Z,1.55
2022-08-02T11:06:26.007Z,1.60
2022-08-02T11:09:33.509Z,1.90
2022-08-02T11:12:08.767Z,1.70
2022-08-02T11:14:37.913Z,1.70
2022-08-02T11:19:34.795Z,1.80
2022-08-02T11:22:05.681Z,1.60
2022-08-02T11:24:40.675Z,1.90
2022-08-02T11:27:17.637Z,1.58
2022-08-02T11:29:46.529Z,1.88
2022-08-02T11:32:30.613Z,1.67
2022-08-02T11:35:01.032Z,1.92
2022-08-02T11:37:44.691Z,1.70
2022-08-02T11:40:18.933Z,1.50
2022-08-02T11:42:53.842Z,2.08
2022-08-02T11:45:29.391Z,1.70
2022-08-02T11:47:57.219Z,1.55
2022-08-02T11:50:29.729Z,1.77
2022-08-02T11:52:57.789Z,1.52
2022-08-02T11:55:34.536Z,1.40
2022-08-02T11:58:06.402Z,1.58
2022-08-02T12:00:33.450Z,1.85
2022-08-02T12:03:00.360Z,1.63
2022-08-02T12:08:14.178Z,1.65
2022-08-02T12:10:49.873Z,1.48
2022-08-02T12:13:16.951Z,1.70
2022-08-02T12:15:46.122Z,1.77
2022-08-02T12:18:33.947Z,1.50
2022-08-02T12:21:04.423Z,1.50
2022-08-02T12:23:31.373Z,1.70
2022-08-02T12:26:15.784Z,1.60
2022-08-02T12:28:43.385Z,1.52
2022-08-02T12:31:14.041Z,1.65
2022-08-02T12:33:57.199Z,1.35
2022-08-02T12:36:28.363Z,1.70
2022-08-02T12:38:57.105Z,1.67
2022-08-02T12:41:31.691Z,1.70
2022-08-02T12:43:59.871Z,1.60
2022-08-02T12:46:27.221Z,1.40
2022-08-02T12:49:16.865Z,1.50
2022-08-02T12:51:56.486Z,1.50
2022-08-02T12:54:30.846Z,1.45
2022-08-02T12:57:11.082Z,1.30
2022-08-02T12:59:39.984Z,1.67
2022-08-02T13:02:11.421Z,1.60
2022-08-02T13:04:39.046Z,1.50
2022-08-02T13:07:08.669Z,1.55
2022-08-02T13:09:37.250Z,1.77
2022-08-02T13:12:05.725Z,1.65
2022-08-02T13:14:38.182Z,1.48
2022-08-02T13:17:08.815Z,1.50
2022-08-02T13:19:36.951Z,1.60
2022-08-02T13:22:04.395Z,1.50
2022-08-02T13:24:39.834Z,1.70
2022-08-02T13:27:09.330Z,1.65
2022-08-02T13:29:43.945Z,1.50
2022-08-02T13:32:15.653Z,1.75
2022-08-02T13:34:42.926Z,1.73
2022-08-02T13:37:12.266Z,1.45
2022-08-02T13:39:39.223Z,1.38
2022-08-02T13:42:08.506Z,1.80
2022-08-02T13:44:45.938Z,1.48
2022-08-02T13:47:15.858Z,1.77
2022-08-02T13:50:03.053Z,1.60
2022-08-02T13:52:30.275Z,1.80
2022-08-02T13:54:57.425Z,1.45
2022-08-02T13:57:24.774Z,1.60
2022-08-02T13:59:56.968Z,1.30
2022-08-02T14:02:28.162Z,2.00
2022-08-02T14:04:55.359Z,1.40
2022-08-02T14:07:24.727Z,1.30
2022-08-02T14:09:51.502Z,1.75
2022-08-02T14:12:21.593Z,1.55
2022-08-02T14:14:48.299Z,1.70
2022-08-02T14:17:15.731Z,1.40
2022-08-02T14:19:47.116Z,1.35
2022-08-02T14:22:13.942Z,1.80
2022-08-02T14:24:41.599Z,1.50
2022-08-02T14:27:08.948Z,1.42
2022-08-02T14:29:35.728Z,1.42
2022-08-02T14:32:02.567Z,1.52
2022-08-02T14:34:29.652Z,1.60
2022-08-02T14:36:56.963Z,1.70
2022-08-02T14:39:23.952Z,1.83
2022-08-02T14:42:00.557Z,1.83
2022-08-02T14:44:30.439Z,1.70
2022-08-02T14:46:59.821Z,1.60
2022-08-02T14:49:26.933Z,1.80
2022-08-02T14:51:57.350Z,1.77
2022-08-02T14:54:30.652Z,1.60
2022-08-02T14:57:03.390Z,1.75
2022-08-02T14:59:30.644Z,1.58
2022-08-02T15:01:58.173Z,1.50
2022-08-02T15:04:25.162Z,1.80
2022-08-02T15:06:52.147Z,1.70
2022-08-02T15:09:19.585Z,1.52
2022-08-02T15:11:48.835Z,1.40
2022-08-02T15:14:20.407Z,1.60
2022-08-02T15:16:58.413Z,1.95
2022-08-02T15:19:46.177Z,1.67
2022-08-02T15:22:18.916Z,1.50
2022-08-02T15:24:47.669Z,1.55
2022-08-02T15:27:15.266Z,1.70
2022-08-02T15:29:46.307Z,1.48
2022-08-02T15:32:14.688Z,1.60
2022-08-02T15:34:41.635Z,1.70
2022-08-02T15:37:08.348Z,1.70
2022-08-02T15:39:35.144Z,2.05
2022-08-02T15:42:07.129Z,1.88
2022-08-02T15:44:33.884Z,1.70
2022-08-02T15:47:00.975Z,1.92
2022-08-02T15:49:30.076Z,1.40
2022-08-02T15:51:59.305Z,1.70
2022-08-02T15:54:28.267Z,1.60
2022-08-02T15:59:24.028Z,1.70
2022-08-02T16:01:50.888Z,1.42
2022-08-02T16:04:17.630Z,1.60
2022-08-02T16:06:45.336Z,1.67
2022-08-02T16:09:14.639Z,1.73
2022-08-02T16:11:41.434Z,1.60
2022-08-02T16:14:08.213Z,1.58
2022-08-02T16:16:36.616Z,1.67
2022-08-02T16:19:46.269Z,1.45
2022-08-02T16:21:52.965Z,1.50
2022-08-02T16:24:20.476Z,1.60
2022-08-02T16:26:47.647Z,1.40
2022-08-02T16:29:19.147Z,1.70
2022-08-02T16:31:47.476Z,1.70
2022-08-02T16:34:14.830Z,1.50
2022-08-02T16:36:41.615Z,1.60
2022-08-02T16:39:08.362Z,1.60
2022-08-02T16:41:45.401Z,1.80
2022-08-02T16:44:18.365Z,1.70
2022-08-02T16:46:56.069Z,1.40
2022-08-02T16:50:05.423Z,1.63
2022-08-02T16:52:12.049Z,1.40
2022-08-02T16:54:41.176Z,2.20
2022-08-02T16:57:08.197Z,1.83
2022-08-02T16:59:41.892Z,1.60
2022-08-02T17:02:18.001Z,1.70
2022-08-02T17:04:49.308Z,1.40
2022-08-02T17:08:07.163Z,1.50
2022-08-02T17:12:37.245Z,1.23
2022-08-02T17:16:01.089Z,1.60
2022-08-02T17:17:51.831Z,1.30
2022-08-02T17:20:19.173Z,1.50
2022-08-02T17:22:45.998Z,1.90
2022-08-02T17:25:17.285Z,1.52
2022-08-02T17:27:44.820Z,1.60
2022-08-02T17:30:13.190Z,1.48
2022-08-02T17:32:45.576Z,1.73
2022-08-02T17:35:12.770Z,1.50
2022-08-02T17:37:42.898Z,1.70
2022-08-02T17:40:23.926Z,1.80
2022-08-02T17:45:25.791Z,1.65
2022-08-02T17:48:04.393Z,1.50
2022-08-02T17:50:33.537Z,1.60
2022-08-02T17:53:00.953Z,1.60
2022-08-02T17:55:33.171Z,1.52
2022-08-02T17:57:59.968Z,1.73
2022-08-02T18:00:38.124Z,1.63
2022-08-02T18:03:10.035Z,1.60
2022-08-02T18:05:39.660Z,1.77
2022-08-02T18:08:18.370Z,1.65
2022-08-02T18:10:48.198Z,1.50
2022-08-02T18:13:14.986Z,1.70
2022-08-02T18:15:45.726Z,1.55
2022-08-02T18:18:19.209Z,1.83
2022-08-02T18:20:56.328Z,1.30
2022-08-02T18:23:25.437Z,1.67
2022-08-02T18:25:56.232Z,1.60
2022-08-02T18:28:26.753Z,1.65
2022-08-02T18:30:59.299Z,1.85
2022-08-02T18:33:58.937Z,1.60
2022-08-02T18:38:52.403Z,1.90
2022-08-02T18:41:22.337Z,1.85
2022-08-02T18:43:56.445Z,1.70
2022-08-02T18:46:30.025Z,1.60
2022-08-02T18:49:06.944Z,1.30
2022-08-02T18:51:42.103Z,1.50
2022-08-02T18:54:08.966Z,1.75
2022-08-02T18:56:38.974Z,1.70
2022-08-02T18:59:07.418Z,1.85
2022-08-02T19:01:39.551Z,1.60
2022-08-02T19:04:15.633Z,1.73
2022-08-02T19:06:54.039Z,1.52
2022-08-02T19:09:23.906Z,1.70
2022-08-02T19:11:50.878Z,1.35
2022-08-02T19:14:27.076Z,2.03
2022-08-02T19:16:59.397Z,1.58
2022-08-02T19:19:28.730Z,2.05
2022-08-02T19:22:17.911Z,2.05
2022-08-02T19:24:44.628Z,2.17
2022-08-02T19:27:13.743Z,1.92
2022-08-02T19:29:43.248Z,2.10
2022-08-02T19:32:41.617Z,2.00
2022-08-02T19:35:19.488Z,2.08
2022-08-02T19:37:59.150Z,2.25
2022-08-02T19:40:46.580Z,2.25
2022-08-02T19:44:20.806Z,2.47
2022-08-02T19:46:00.475Z,2.20
2022-08-02T19:48:29.929Z,2.53
2022-08-02T19:51:01.166Z,2.47
2022-08-02T19:53:47.726Z,2.13
2022-08-02T19:56:25.397Z,2.63
2022-08-02T19:58:54.521Z,2.30
2022-08-02T20:01:28.458Z,2.40
2022-08-02T20:04:07.796Z,1.90
2022-08-02T20:06:45.408Z,2.10
2022-08-02T20:09:13.979Z,2.17
2022-08-02T20:11:46.756Z,2.53
2022-08-02T20:14:27.008Z,2.47
2022-08-02T20:16:59.900Z,2.10
2022-08-02T20:19:29.907Z,2.40
2022-08-02T20:22:00.011Z,2.53
2022-08-02T20:24:28.435Z,2.42
2022-08-02T20:26:55.637Z,2.50
2022-08-02T20:29:44.957Z,2.30
2022-08-02T20:32:21.405Z,2.53
2022-08-02T20:34:49.832Z,2.45
2022-08-02T20:38:01.053Z,2.60
2022-08-02T20:40:05.412Z,2.20
2022-08-02T20:42:34.077Z,2.25
2022-08-02T20:47:39.092Z,3.10
2022-08-02T20:50:34.053Z,2.70
2022-08-02T20:53:01.273Z,2.40
2022-08-02T20:55:31.164Z,2.17
2022-08-02T20:58:02.852Z,2.45
2022-08-02T21:00:30.245Z,2.67
2022-08-02T21:03:00.671Z,2.60
2022-08-02T21:05:54.148Z,2.67
2022-08-02T21:08:21.977Z,2.72
2022-08-02T21:10:55.541Z,2.53
2022-08-02T21:13:26.878Z,2.67
2022-08-02T21:15:59.410Z,2.60
2022-08-02T21:18:30.554Z,2.53
2022-08-02T21:21:08.872Z,2.47
2022-08-02T21:23:36.827Z,2.40
2022-08-02T21:26:04.705Z,2.53
2022-08-02T21:28:43.592Z,2.90
2022-08-02T21:31:12.164Z,2.60
2022-08-02T21:33:58.066Z,2.60
2022-08-02T21:36:33.430Z,2.25
2022-08-02T21:39:08.858Z,2.38
2022-08-02T21:41:46.477Z,2.38
2022-08-02T21:44:21.656Z,2.38
2022-08-02T21:46:51.836Z,2.60
2022-08-02T21:49:41.174Z,2.10
2022-08-02T21:52:10.339Z,2.35
2022-08-02T21:54:39.793Z,2.53
2022-08-02T21:57:07.768Z,2.30
2022-08-02T21:59:45.185Z,2.10
2022-08-02T22:02:16.478Z,2.20
2022-08-02T22:04:47.543Z,2.70
2022-08-02T22:07:16.527Z,2.40
2022-08-02T22:09:46.303Z,2.55
2022-08-02T22:12:18.811Z,2.10
2022-08-02T22:14:54.937Z,2.20
2022-08-02T22:17:50.955Z,2.72
2022-08-02T22:20:18.355Z,2.47
2022-08-02T22:22:50.170Z,2.65
2022-08-02T22:25:26.827Z,2.45
2022-08-02T22:28:37.185Z,2.30
2022-08-02T22:30:53.907Z,2.45
2022-08-02T22:33:46.671Z,2.80
2022-08-02T22:36:28.297Z,2.20
2022-08-02T22:38:57.997Z,2.20
2022-08-02T22:41:24.809Z,2.67
2022-08-02T22:43:53.967Z,2.30
2022-08-02T22:46:26.513Z,2.42
2022-08-02T22:48:54.989Z,2.00
2022-08-02T22:51:22.158Z,2.25
2022-08-02T22:53:48.939Z,2.70
2022-08-02T22:56:16.202Z,2.40
2022-08-02T23:01:30.183Z,2.22
2022-08-02T23:03:57.023Z,2.40
2022-08-02T23:06:25.942Z,2.35
2022-08-02T23:08:52.689Z,2.10
2022-08-02T23:11:19.521Z,2.20
2022-08-02T23:13:50.691Z,2.03
2022-08-02T23:16:39.426Z,2.45
2022-08-02T23:19:24.937Z,2.33
2022-08-02T23:22:02.820Z,2.28
2022-08-02T23:24:32.890Z,2.13
2022-08-02T23:27:02.122Z,2.20
2022-08-02T23:29:29.127Z,2.40
2022-08-02T23:31:56.015Z,2.55
2022-08-02T23:34:22.802Z,2.20
2022-08-02T23:36:49.497Z,2.30
2022-08-02T23:39:16.190Z,2.38
2022-08-02T23:41:42.959Z,2.25
2022-08-02T23:44:13.982Z,2.40
2022-08-02T23:46:47.435Z,2.78
2022-08-02T23:49:15.895Z,2.40
2022-08-02T23:51:43.208Z,2.25
2022-08-02T23:54:10.977Z,2.30
2022-08-02T23:56:40.784Z,2.17
2022-08-02T23:59:08.298Z,2.50
